sensor_id;sensor_type;location;lat;lon;timestamp;temperature;humidity
17984;DHT22;9117;52.420;20.728;2023-05-24T00:01:48;17.50;69.10
17984;DHT22;9117;52.420;20.728;2023-05-24T00:04:17;17.60;69.10
17984;DHT22;9117;52.420;20.728;2023-05-24T00:06:45;17.60;69.20
17984;DHT22;9117;52.420;20.728;2023-05-24T00:09:14;17.40;70.00
17984;DHT22;9117;52.420;20.728;2023-05-24T00:11:43;17.40;70.10
17984;DHT22;9117;52.420;20.728;2023-05-24T00:14:12;17.50;70.70
17984;DHT22;9117;52.420;20.728;2023-05-24T00:16:40;17.60;70.50
17984;DHT22;9117;52.420;20.728;2023-05-24T00:19:08;17.50;71.80
17984;DHT22;9117;52.420;20.728;2023-05-24T00:21:37;17.50;71.70
17984;DHT22;9117;52.420;20.728;2023-05-24T00:24:06;17.40;70.10
17984;DHT22;9117;52.420;20.728;2023-05-24T00:26:34;17.30;71.80
17984;DHT22;9117;52.420;20.728;2023-05-24T00:29:04;17.00;71.50
17984;DHT22;9117;52.420;20.728;2023-05-24T00:31:32;17.00;73.50
17984;DHT22;9117;52.420;20.728;2023-05-24T00:34:01;16.90;73.70
17984;DHT22;9117;52.420;20.728;2023-05-24T00:36:29;16.90;76.20
17984;DHT22;9117;52.420;20.728;2023-05-24T00:38:57;16.80;75.80
17984;DHT22;9117;52.420;20.728;2023-05-24T00:41:25;16.90;75.50
17984;DHT22;9117;52.420;20.728;2023-05-24T00:43:54;17.00;75.00
17984;DHT22;9117;52.420;20.728;2023-05-24T00:46:26;17.00;74.80
17984;DHT22;9117;52.420;20.728;2023-05-24T00:48:56;16.90;73.60
17984;DHT22;9117;52.420;20.728;2023-05-24T00:51:25;16.80;75.50
17984;DHT22;9117;52.420;20.728;2023-05-24T00:53:54;16.90;74.90
17984;DHT22;9117;52.420;20.728;2023-05-24T00:56:22;16.90;77.10
17984;DHT22;9117;52.420;20.728;2023-05-24T00:58:52;16.90;76.10
17984;DHT22;9117;52.420;20.728;2023-05-24T01:01:23;16.80;78.80
17984;DHT22;9117;52.420;20.728;2023-05-24T01:03:52;16.70;76.70
17984;DHT22;9117;52.420;20.728;2023-05-24T01:06:21;16.70;77.60
17984;DHT22;9117;52.420;20.728;2023-05-24T01:09:08;16.70;76.50
17984;DHT22;9117;52.420;20.728;2023-05-24T01:11:52;16.70;77.60
17984;DHT22;9117;52.420;20.728;2023-05-24T01:14:26;16.80;77.00
17984;DHT22;9117;52.420;20.728;2023-05-24T01:17:03;16.80;77.50
17984;DHT22;9117;52.420;20.728;2023-05-24T01:19:50;16.80;78.00
17984;DHT22;9117;52.420;20.728;2023-05-24T01:22:34;16.70;78.70
17984;DHT22;9117;52.420;20.728;2023-05-24T01:25:11;16.80;79.00
17984;DHT22;9117;52.420;20.728;2023-05-24T01:27:42;16.60;80.50
17984;DHT22;9117;52.420;20.728;2023-05-24T01:30:11;16.60;80.20
17984;DHT22;9117;52.420;20.728;2023-05-24T01:32:41;16.50;80.60
17984;DHT22;9117;52.420;20.728;2023-05-24T01:35:09;16.50;80.10
17984;DHT22;9117;52.420;20.728;2023-05-24T01:37:37;16.40;80.60
17984;DHT22;9117;52.420;20.728;2023-05-24T01:40:07;16.50;83.20
17984;DHT22;9117;52.420;20.728;2023-05-24T01:42:44;16.30;83.50
17984;DHT22;9117;52.420;20.728;2023-05-24T01:45:20;16.00;84.00
17984;DHT22;9117;52.420;20.728;2023-05-24T01:47:58;15.90;85.50
17984;DHT22;9117;52.420;20.728;2023-05-24T01:50:32;15.80;83.90
17984;DHT22;9117;52.420;20.728;2023-05-24T01:53:03;15.70;82.80
17984;DHT22;9117;52.420;20.728;2023-05-24T01:55:33;15.70;85.00
17984;DHT22;9117;52.420;20.728;2023-05-24T01:58:05;15.60;86.20
17984;DHT22;9117;52.420;20.728;2023-05-24T02:00:34;15.70;84.40
17984;DHT22;9117;52.420;20.728;2023-05-24T02:03:02;16.00;85.20
17984;DHT22;9117;52.420;20.728;2023-05-24T02:05:31;16.10;84.50
17984;DHT22;9117;52.420;20.728;2023-05-24T02:08:00;16.20;83.90
17984;DHT22;9117;52.420;20.728;2023-05-24T02:10:28;16.10;84.00
17984;DHT22;9117;52.420;20.728;2023-05-24T02:12:56;15.90;84.10
17984;DHT22;9117;52.420;20.728;2023-05-24T02:15:27;15.70;85.70
17984;DHT22;9117;52.420;20.728;2023-05-24T02:17:56;15.60;87.00
17984;DHT22;9117;52.420;20.728;2023-05-24T02:20:24;15.60;86.00
17984;DHT22;9117;52.420;20.728;2023-05-24T02:22:54;15.50;85.80
17984;DHT22;9117;52.420;20.728;2023-05-24T02:25:23;15.60;84.60
17984;DHT22;9117;52.420;20.728;2023-05-24T02:27:51;15.70;86.10
17984;DHT22;9117;52.420;20.728;2023-05-24T02:30:19;15.70;86.00
17984;DHT22;9117;52.420;20.728;2023-05-24T02:32:49;15.70;87.30
17984;DHT22;9117;52.420;20.728;2023-05-24T02:35:17;15.70;87.40
17984;DHT22;9117;52.420;20.728;2023-05-24T02:37:46;15.70;87.10
17984;DHT22;9117;52.420;20.728;2023-05-24T02:40:14;15.60;86.20
17984;DHT22;9117;52.420;20.728;2023-05-24T02:42:42;15.60;86.40
17984;DHT22;9117;52.420;20.728;2023-05-24T02:45:10;15.60;88.80
17984;DHT22;9117;52.420;20.728;2023-05-24T02:47:38;15.60;86.60
17984;DHT22;9117;52.420;20.728;2023-05-24T02:50:09;15.60;88.40
17984;DHT22;9117;52.420;20.728;2023-05-24T02:52:37;15.60;88.60
17984;DHT22;9117;52.420;20.728;2023-05-24T02:55:06;15.80;88.40
17984;DHT22;9117;52.420;20.728;2023-05-24T02:57:35;15.60;87.90
17984;DHT22;9117;52.420;20.728;2023-05-24T03:00:04;15.60;87.80
17984;DHT22;9117;52.420;20.728;2023-05-24T03:02:34;15.60;86.50
17984;DHT22;9117;52.420;20.728;2023-05-24T03:05:05;15.60;88.90
17984;DHT22;9117;52.420;20.728;2023-05-24T03:07:35;15.60;89.00
17984;DHT22;9117;52.420;20.728;2023-05-24T03:10:03;15.60;89.70
17984;DHT22;9117;52.420;20.728;2023-05-24T03:12:32;15.60;90.00
17984;DHT22;9117;52.420;20.728;2023-05-24T03:15:00;15.60;89.30
17984;DHT22;9117;52.420;20.728;2023-05-24T03:17:28;15.60;90.30
17984;DHT22;9117;52.420;20.728;2023-05-24T03:19:57;15.70;90.00
17984;DHT22;9117;52.420;20.728;2023-05-24T03:22:25;15.60;89.90
17984;DHT22;9117;52.420;20.728;2023-05-24T03:24:55;15.70;89.50
17984;DHT22;9117;52.420;20.728;2023-05-24T03:27:24;15.70;89.80
17984;DHT22;9117;52.420;20.728;2023-05-24T03:29:52;15.60;87.70
17984;DHT22;9117;52.420;20.728;2023-05-24T03:32:20;15.70;88.60
17984;DHT22;9117;52.420;20.728;2023-05-24T03:34:48;15.70;90.30
17984;DHT22;9117;52.420;20.728;2023-05-24T03:37:16;15.90;88.70
17984;DHT22;9117;52.420;20.728;2023-05-24T03:39:45;15.90;89.90
17984;DHT22;9117;52.420;20.728;2023-05-24T03:42:14;15.90;88.60
17984;DHT22;9117;52.420;20.728;2023-05-24T03:44:43;16.00;90.30
17984;DHT22;9117;52.420;20.728;2023-05-24T03:47:11;16.10;89.30
17984;DHT22;9117;52.420;20.728;2023-05-24T03:49:39;16.00;88.40
17984;DHT22;9117;52.420;20.728;2023-05-24T03:52:07;15.90;88.20
17984;DHT22;9117;52.420;20.728;2023-05-24T03:54:36;16.30;90.00
17984;DHT22;9117;52.420;20.728;2023-05-24T03:57:04;16.40;90.40
17984;DHT22;9117;52.420;20.728;2023-05-24T03:59:34;16.20;91.40
17984;DHT22;9117;52.420;20.728;2023-05-24T04:02:04;16.10;90.70
17984;DHT22;9117;52.420;20.728;2023-05-24T04:04:32;16.20;91.30
17984;DHT22;9117;52.420;20.728;2023-05-24T04:07:00;16.30;90.10
17984;DHT22;9117;52.420;20.728;2023-05-24T04:09:29;16.40;90.50
17984;DHT22;9117;52.420;20.728;2023-05-24T04:11:57;16.30;90.20
17984;DHT22;9117;52.420;20.728;2023-05-24T04:14:25;16.40;90.50
17984;DHT22;9117;52.420;20.728;2023-05-24T04:16:55;16.40;89.60
17984;DHT22;9117;52.420;20.728;2023-05-24T04:19:23;16.50;90.20
17984;DHT22;9117;52.420;20.728;2023-05-24T04:21:51;16.70;90.90
17984;DHT22;9117;52.420;20.728;2023-05-24T04:24:19;16.70;90.10
17984;DHT22;9117;52.420;20.728;2023-05-24T04:26:48;16.80;90.70
17984;DHT22;9117;52.420;20.728;2023-05-24T04:29:17;16.70;90.60
17984;DHT22;9117;52.420;20.728;2023-05-24T04:31:45;16.70;90.70
17984;DHT22;9117;52.420;20.728;2023-05-24T04:34:16;16.50;89.80
17984;DHT22;9117;52.420;20.728;2023-05-24T04:36:48;16.40;90.10
17984;DHT22;9117;52.420;20.728;2023-05-24T04:39:18;16.60;90.00
17984;DHT22;9117;52.420;20.728;2023-05-24T04:41:46;16.70;90.30
17984;DHT22;9117;52.420;20.728;2023-05-24T04:44:16;16.70;90.20
17984;DHT22;9117;52.420;20.728;2023-05-24T04:46:45;16.80;91.40
17984;DHT22;9117;52.420;20.728;2023-05-24T04:49:13;16.80;91.40
17984;DHT22;9117;52.420;20.728;2023-05-24T04:51:43;16.90;90.70
17984;DHT22;9117;52.420;20.728;2023-05-24T04:54:11;16.90;90.20
17984;DHT22;9117;52.420;20.728;2023-05-24T04:56:39;16.80;90.00
17984;DHT22;9117;52.420;20.728;2023-05-24T04:59:07;17.00;90.40
17984;DHT22;9117;52.420;20.728;2023-05-24T05:01:35;17.00;91.70
17984;DHT22;9117;52.420;20.728;2023-05-24T05:04:04;17.10;91.40
17984;DHT22;9117;52.420;20.728;2023-05-24T05:06:33;17.10;91.00
17984;DHT22;9117;52.420;20.728;2023-05-24T05:09:06;17.10;89.60
17984;DHT22;9117;52.420;20.728;2023-05-24T05:11:37;17.00;90.40
17984;DHT22;9117;52.420;20.728;2023-05-24T05:14:06;16.90;90.90
17984;DHT22;9117;52.420;20.728;2023-05-24T05:16:36;16.80;90.60
17984;DHT22;9117;52.420;20.728;2023-05-24T05:19:04;16.80;90.00
17984;DHT22;9117;52.420;20.728;2023-05-24T05:21:33;16.80;90.50
17984;DHT22;9117;52.420;20.728;2023-05-24T05:24:02;16.80;90.90
17984;DHT22;9117;52.420;20.728;2023-05-24T05:26:32;16.80;90.60
17984;DHT22;9117;52.420;20.728;2023-05-24T05:29:01;16.80;91.00
17984;DHT22;9117;52.420;20.728;2023-05-24T05:31:29;16.80;91.20
17984;DHT22;9117;52.420;20.728;2023-05-24T05:33:57;16.90;91.50
17984;DHT22;9117;52.420;20.728;2023-05-24T05:36:25;16.90;91.60
17984;DHT22;9117;52.420;20.728;2023-05-24T05:38:54;16.90;91.20
17984;DHT22;9117;52.420;20.728;2023-05-24T05:41:22;16.90;92.10
17984;DHT22;9117;52.420;20.728;2023-05-24T05:43:51;17.00;91.70
17984;DHT22;9117;52.420;20.728;2023-05-24T05:46:20;17.20;91.60
17984;DHT22;9117;52.420;20.728;2023-05-24T05:48:48;17.30;90.10
17984;DHT22;9117;52.420;20.728;2023-05-24T05:51:16;17.50;88.40
17984;DHT22;9117;52.420;20.728;2023-05-24T05:53:45;17.50;89.70
17984;DHT22;9117;52.420;20.728;2023-05-24T05:56:13;17.70;88.70
17984;DHT22;9117;52.420;20.728;2023-05-24T05:58:41;17.80;88.00
17984;DHT22;9117;52.420;20.728;2023-05-24T06:01:10;17.90;86.60
17984;DHT22;9117;52.420;20.728;2023-05-24T06:03:39;18.10;83.90
17984;DHT22;9117;52.420;20.728;2023-05-24T06:06:07;18.20;83.30
17984;DHT22;9117;52.420;20.728;2023-05-24T06:08:35;18.30;81.80
17984;DHT22;9117;52.420;20.728;2023-05-24T06:11:06;18.40;79.00
17984;DHT22;9117;52.420;20.728;2023-05-24T06:13:34;18.40;79.60
17984;DHT22;9117;52.420;20.728;2023-05-24T06:16:03;18.50;76.10
17984;DHT22;9117;52.420;20.728;2023-05-24T06:18:32;18.50;74.50
17984;DHT22;9117;52.420;20.728;2023-05-24T06:21:01;18.60;73.80
17984;DHT22;9117;52.420;20.728;2023-05-24T06:23:29;18.50;72.20
17984;DHT22;9117;52.420;20.728;2023-05-24T06:25:57;18.60;73.40
17984;DHT22;9117;52.420;20.728;2023-05-24T06:28:27;18.50;74.10
17984;DHT22;9117;52.420;20.728;2023-05-24T06:30:55;18.60;73.60
17984;DHT22;9117;52.420;20.728;2023-05-24T06:33:23;18.50;71.10
17984;DHT22;9117;52.420;20.728;2023-05-24T06:35:54;18.60;70.90
17984;DHT22;9117;52.420;20.728;2023-05-24T06:38:22;18.60;71.20
17984;DHT22;9117;52.420;20.728;2023-05-24T06:40:51;18.70;72.00
17984;DHT22;9117;52.420;20.728;2023-05-24T06:43:19;18.80;71.00
17984;DHT22;9117;52.420;20.728;2023-05-24T06:45:47;18.80;70.70
17984;DHT22;9117;52.420;20.728;2023-05-24T06:48:16;19.00;72.00
17984;DHT22;9117;52.420;20.728;2023-05-24T06:50:44;19.10;72.40
17984;DHT22;9117;52.420;20.728;2023-05-24T06:53:15;19.10;70.60
17984;DHT22;9117;52.420;20.728;2023-05-24T06:55:43;19.00;71.40
17984;DHT22;9117;52.420;20.728;2023-05-24T06:58:11;19.00;71.70
17984;DHT22;9117;52.420;20.728;2023-05-24T07:00:40;19.10;70.50
17984;DHT22;9117;52.420;20.728;2023-05-24T07:03:09;19.10;70.60
17984;DHT22;9117;52.420;20.728;2023-05-24T07:05:37;19.20;68.80
17984;DHT22;9117;52.420;20.728;2023-05-24T07:08:05;19.30;71.10
17984;DHT22;9117;52.420;20.728;2023-05-24T07:10:36;19.40;70.20
17984;DHT22;9117;52.420;20.728;2023-05-24T07:13:04;19.40;68.50
17984;DHT22;9117;52.420;20.728;2023-05-24T07:15:33;19.50;70.90
17984;DHT22;9117;52.420;20.728;2023-05-24T07:18:01;19.50;69.90
17984;DHT22;9117;52.420;20.728;2023-05-24T07:20:29;19.50;71.70
17984;DHT22;9117;52.420;20.728;2023-05-24T07:22:58;19.70;72.40
17984;DHT22;9117;52.420;20.728;2023-05-24T07:25:27;19.60;71.70
17984;DHT22;9117;52.420;20.728;2023-05-24T07:27:56;19.60;69.60
17984;DHT22;9117;52.420;20.728;2023-05-24T07:30:24;19.60;68.80
17984;DHT22;9117;52.420;20.728;2023-05-24T07:32:59;19.60;69.10
17984;DHT22;9117;52.420;20.728;2023-05-24T07:35:27;19.80;68.40
17984;DHT22;9117;52.420;20.728;2023-05-24T07:37:56;19.90;68.50
17984;DHT22;9117;52.420;20.728;2023-05-24T07:40:25;20.00;71.40
17984;DHT22;9117;52.420;20.728;2023-05-24T07:42:57;20.00;69.80
17984;DHT22;9117;52.420;20.728;2023-05-24T07:45:25;20.10;70.40
17984;DHT22;9117;52.420;20.728;2023-05-24T07:47:53;20.20;69.80
17984;DHT22;9117;52.420;20.728;2023-05-24T07:50:23;20.20;68.00
17984;DHT22;9117;52.420;20.728;2023-05-24T07:52:52;20.30;67.10
17984;DHT22;9117;52.420;20.728;2023-05-24T07:55:21;20.50;69.10
17984;DHT22;9117;52.420;20.728;2023-05-24T07:57:49;20.50;66.80
17984;DHT22;9117;52.420;20.728;2023-05-24T08:00:19;20.40;65.90
17984;DHT22;9117;52.420;20.728;2023-05-24T08:02:49;20.60;69.20
17984;DHT22;9117;52.420;20.728;2023-05-24T08:05:18;20.60;71.00
17984;DHT22;9117;52.420;20.728;2023-05-24T08:07:46;20.60;68.30
17984;DHT22;9117;52.420;20.728;2023-05-24T08:10:14;20.60;69.00
17984;DHT22;9117;52.420;20.728;2023-05-24T08:12:42;20.50;69.50
17984;DHT22;9117;52.420;20.728;2023-05-24T08:15:11;20.60;69.80
17984;DHT22;9117;52.420;20.728;2023-05-24T08:17:40;20.60;69.10
17984;DHT22;9117;52.420;20.728;2023-05-24T08:20:09;20.70;70.60
17984;DHT22;9117;52.420;20.728;2023-05-24T08:22:40;20.50;71.60
17984;DHT22;9117;52.420;20.728;2023-05-24T08:25:09;20.30;72.00
17984;DHT22;9117;52.420;20.728;2023-05-24T08:27:37;20.40;73.00
17984;DHT22;9117;52.420;20.728;2023-05-24T08:30:07;20.50;72.50
17984;DHT22;9117;52.420;20.728;2023-05-24T08:32:35;20.30;74.80
17984;DHT22;9117;52.420;20.728;2023-05-24T08:35:06;20.50;74.30
17984;DHT22;9117;52.420;20.728;2023-05-24T08:37:47;20.60;74.10
17984;DHT22;9117;52.420;20.728;2023-05-24T08:40:16;20.70;75.30
17984;DHT22;9117;52.420;20.728;2023-05-24T08:42:45;20.70;72.00
17984;DHT22;9117;52.420;20.728;2023-05-24T08:45:14;20.90;76.20
17984;DHT22;9117;52.420;20.728;2023-05-24T08:47:42;21.10;74.70
17984;DHT22;9117;52.420;20.728;2023-05-24T08:50:12;20.80;75.00
17984;DHT22;9117;52.420;20.728;2023-05-24T08:52:43;21.10;74.60
17984;DHT22;9117;52.420;20.728;2023-05-24T08:55:12;21.50;71.50
17984;DHT22;9117;52.420;20.728;2023-05-24T08:57:43;21.70;71.70
17984;DHT22;9117;52.420;20.728;2023-05-24T09:00:13;21.70;71.10
17984;DHT22;9117;52.420;20.728;2023-05-24T09:02:42;21.80;72.00
17984;DHT22;9117;52.420;20.728;2023-05-24T09:05:13;21.80;71.00
17984;DHT22;9117;52.420;20.728;2023-05-24T09:07:44;22.00;70.10
17984;DHT22;9117;52.420;20.728;2023-05-24T09:10:13;21.70;73.80
17984;DHT22;9117;52.420;20.728;2023-05-24T09:12:44;21.70;77.20
17984;DHT22;9117;52.420;20.728;2023-05-24T09:15:12;21.40;76.90
17984;DHT22;9117;52.420;20.728;2023-05-24T09:17:41;21.30;76.00
17984;DHT22;9117;52.420;20.728;2023-05-24T09:20:10;21.30;75.80
17984;DHT22;9117;52.420;20.728;2023-05-24T09:22:41;21.20;76.00
17984;DHT22;9117;52.420;20.728;2023-05-24T09:25:12;21.20;75.30
17984;DHT22;9117;52.420;20.728;2023-05-24T09:27:48;21.30;75.00
17984;DHT22;9117;52.420;20.728;2023-05-24T09:30:17;21.30;76.70
17984;DHT22;9117;52.420;20.728;2023-05-24T09:32:56;21.20;76.30
17984;DHT22;9117;52.420;20.728;2023-05-24T09:35:25;21.30;76.80
17984;DHT22;9117;52.420;20.728;2023-05-24T09:37:56;21.20;79.20
17984;DHT22;9117;52.420;20.728;2023-05-24T09:40:26;21.50;82.30
17984;DHT22;9117;52.420;20.728;2023-05-24T09:43:04;21.70;76.90
17984;DHT22;9117;52.420;20.728;2023-05-24T09:45:40;21.80;75.20
17984;DHT22;9117;52.420;20.728;2023-05-24T09:48:10;21.70;74.60
17984;DHT22;9117;52.420;20.728;2023-05-24T09:50:39;21.80;74.80
17984;DHT22;9117;52.420;20.728;2023-05-24T09:53:10;22.00;74.00
17984;DHT22;9117;52.420;20.728;2023-05-24T09:55:38;22.20;75.50
17984;DHT22;9117;52.420;20.728;2023-05-24T09:58:07;22.20;73.00
17984;DHT22;9117;52.420;20.728;2023-05-24T10:00:38;22.20;76.40
17984;DHT22;9117;52.420;20.728;2023-05-24T10:03:09;22.20;73.40
17984;DHT22;9117;52.420;20.728;2023-05-24T10:05:42;22.20;75.80
17984;DHT22;9117;52.420;20.728;2023-05-24T10:08:12;21.90;73.90
17984;DHT22;9117;52.420;20.728;2023-05-24T10:10:41;21.80;75.60
17984;DHT22;9117;52.420;20.728;2023-05-24T10:13:11;21.70;78.70
17984;DHT22;9117;52.420;20.728;2023-05-24T10:15:42;21.60;80.50
17984;DHT22;9117;52.420;20.728;2023-05-24T10:18:11;21.50;79.50
17984;DHT22;9117;52.420;20.728;2023-05-24T10:20:40;21.30;82.80
17984;DHT22;9117;52.420;20.728;2023-05-24T10:23:10;21.50;83.30
17984;DHT22;9117;52.420;20.728;2023-05-24T10:25:49;21.50;81.00
17984;DHT22;9117;52.420;20.728;2023-05-24T10:28:19;21.30;80.40
17984;DHT22;9117;52.420;20.728;2023-05-24T10:30:57;21.40;82.00
17984;DHT22;9117;52.420;20.728;2023-05-24T10:33:28;21.00;80.10
17984;DHT22;9117;52.420;20.728;2023-05-24T10:35:57;21.10;80.00
17984;DHT22;9117;52.420;20.728;2023-05-24T10:38:25;20.90;79.60
17984;DHT22;9117;52.420;20.728;2023-05-24T10:40:55;20.80;79.30
17984;DHT22;9117;52.420;20.728;2023-05-24T10:43:25;20.80;81.30
17984;DHT22;9117;52.420;20.728;2023-05-24T10:45:53;20.80;81.20
17984;DHT22;9117;52.420;20.728;2023-05-24T10:48:58;20.90;78.40
17984;DHT22;9117;52.420;20.728;2023-05-24T10:52:14;21.00;77.40
17984;DHT22;9117;52.420;20.728;2023-05-24T10:55:33;21.30;79.00
17984;DHT22;9117;52.420;20.728;2023-05-24T10:59:00;21.60;78.40
17984;DHT22;9117;52.420;20.728;2023-05-24T11:02:18;21.90;80.60
17984;DHT22;9117;52.420;20.728;2023-05-24T11:05:47;22.10;75.60
17984;DHT22;9117;52.420;20.728;2023-05-24T11:09:08;21.90;74.40
17984;DHT22;9117;52.420;20.728;2023-05-24T11:12:29;22.20;73.80
17984;DHT22;9117;52.420;20.728;2023-05-24T11:15:50;22.40;73.30
17984;DHT22;9117;52.420;20.728;2023-05-24T11:19:17;22.30;73.00
17984;DHT22;9117;52.420;20.728;2023-05-24T11:22:33;22.40;71.80
17984;DHT22;9117;52.420;20.728;2023-05-24T11:25:49;22.40;70.70
17984;DHT22;9117;52.420;20.728;2023-05-24T11:29:06;22.70;72.70
